sensor_id;sensor_type;location;lat;lon;timestamp;temperature;humidity
19880;DHT22;10102;50.828;4.416;2024-02-26T00:00:15;9.50;99.90
19880;DHT22;10102;50.828;4.416;2024-02-26T00:02:41;9.50;99.90
19880;DHT22;10102;50.828;4.416;2024-02-26T00:05:07;9.30;99.90
19880;DHT22;10102;50.828;4.416;2024-02-26T00:07:34;9.30;99.90
19880;DHT22;10102;50.828;4.416;2024-02-26T00:09:59;9.40;99.90
19880;DHT22;10102;50.828;4.416;2024-02-26T00:12:25;9.40;99.90
19880;DHT22;10102;50.828;4.416;2024-02-26T00:14:51;9.40;99.90
19880;DHT22;10102;50.828;4.416;2024-02-26T00:17:18;9.40;99.90
19880;DHT22;10102;50.828;4.416;2024-02-26T00:19:43;9.40;99.90
19880;DHT22;10102;50.828;4.416;2024-02-26T00:22:09;9.40;99.90
19880;DHT22;10102;50.828;4.416;2024-02-26T00:24:35;9.30;99.90
19880;DHT22;10102;50.828;4.416;2024-02-26T00:27:00;9.30;99.90
19880;DHT22;10102;50.828;4.416;2024-02-26T00:29:26;9.30;99.90
19880;DHT22;10102;50.828;4.416;2024-02-26T00:31:53;9.20;99.90
19880;DHT22;10102;50.828;4.416;2024-02-26T00:34:18;9.30;99.90
19880;DHT22;10102;50.828;4.416;2024-02-26T00:36:44;9.30;99.90
19880;DHT22;10102;50.828;4.416;2024-02-26T00:39:11;9.30;99.90
19880;DHT22;10102;50.828;4.416;2024-02-26T00:41:41;9.40;99.90
19880;DHT22;10102;50.828;4.416;2024-02-26T00:44:07;9.20;99.90
19880;DHT22;10102;50.828;4.416;2024-02-26T00:46:32;9.10;99.90
19880;DHT22;10102;50.828;4.416;2024-02-26T00:48:58;9.10;99.90
19880;DHT22;10102;50.828;4.416;2024-02-26T00:51:24;9.20;99.90
19880;DHT22;10102;50.828;4.416;2024-02-26T00:53:49;9.20;99.90
19880;DHT22;10102;50.828;4.416;2024-02-26T00:56:15;9.30;99.90
19880;DHT22;10102;50.828;4.416;2024-02-26T00:58:41;9.20;99.90
19880;DHT22;10102;50.828;4.416;2024-02-26T01:01:06;9.20;99.90
19880;DHT22;10102;50.828;4.416;2024-02-26T01:03:32;9.10;99.90
19880;DHT22;10102;50.828;4.416;2024-02-26T01:05:58;9.10;99.90
19880;DHT22;10102;50.828;4.416;2024-02-26T01:08:23;9.20;99.90
19880;DHT22;10102;50.828;4.416;2024-02-26T01:10:49;9.10;99.90
19880;DHT22;10102;50.828;4.416;2024-02-26T01:13:15;9.00;99.90
19880;DHT22;10102;50.828;4.416;2024-02-26T01:15:40;9.10;99.90
19880;DHT22;10102;50.828;4.416;2024-02-26T01:18:06;9.30;99.90
19880;DHT22;10102;50.828;4.416;2024-02-26T01:20:31;9.10;99.90
19880;DHT22;10102;50.828;4.416;2024-02-26T01:22:57;9.10;99.90
19880;DHT22;10102;50.828;4.416;2024-02-26T01:25:23;9.10;99.90
19880;DHT22;10102;50.828;4.416;2024-02-26T01:27:48;8.90;99.90
19880;DHT22;10102;50.828;4.416;2024-02-26T01:30:14;9.00;99.90
19880;DHT22;10102;50.828;4.416;2024-02-26T01:32:42;9.10;99.90
19880;DHT22;10102;50.828;4.416;2024-02-26T01:35:08;9.10;99.90
19880;DHT22;10102;50.828;4.416;2024-02-26T01:37:36;9.00;99.90
19880;DHT22;10102;50.828;4.416;2024-02-26T01:40:02;9.10;99.90
19880;DHT22;10102;50.828;4.416;2024-02-26T01:42:32;9.00;99.90
19880;DHT22;10102;50.828;4.416;2024-02-26T01:44:59;8.90;99.90
19880;DHT22;10102;50.828;4.416;2024-02-26T01:47:25;8.90;99.90
19880;DHT22;10102;50.828;4.416;2024-02-26T01:49:51;8.90;99.90
19880;DHT22;10102;50.828;4.416;2024-02-26T01:52:17;8.90;99.90
19880;DHT22;10102;50.828;4.416;2024-02-26T01:54:43;8.90;99.90
19880;DHT22;10102;50.828;4.416;2024-02-26T01:57:11;8.90;99.90
19880;DHT22;10102;50.828;4.416;2024-02-26T01:59:38;8.80;99.90
19880;DHT22;10102;50.828;4.416;2024-02-26T02:02:07;8.80;99.90
19880;DHT22;10102;50.828;4.416;2024-02-26T02:04:35;8.80;99.90
19880;DHT22;10102;50.828;4.416;2024-02-26T02:07:01;8.80;99.90
19880;DHT22;10102;50.828;4.416;2024-02-26T02:09:30;8.80;99.90
19880;DHT22;10102;50.828;4.416;2024-02-26T02:11:56;8.90;99.90
19880;DHT22;10102;50.828;4.416;2024-02-26T02:14:22;9.10;99.90
19880;DHT22;10102;50.828;4.416;2024-02-26T02:16:48;8.70;99.90
19880;DHT22;10102;50.828;4.416;2024-02-26T02:19:14;8.90;99.90
19880;DHT22;10102;50.828;4.416;2024-02-26T02:21:39;9.00;99.90
19880;DHT22;10102;50.828;4.416;2024-02-26T02:24:05;8.80;99.90
19880;DHT22;10102;50.828;4.416;2024-02-26T02:26:30;8.80;99.90
19880;DHT22;10102;50.828;4.416;2024-02-26T02:28:56;8.90;99.90
19880;DHT22;10102;50.828;4.416;2024-02-26T02:33:48;8.70;99.90
19880;DHT22;10102;50.828;4.416;2024-02-26T02:36:14;8.80;99.90
19880;DHT22;10102;50.828;4.416;2024-02-26T02:38:48;8.70;99.90
19880;DHT22;10102;50.828;4.416;2024-02-26T02:41:15;8.70;99.90
19880;DHT22;10102;50.828;4.416;2024-02-26T02:43:41;9.20;99.90
19880;DHT22;10102;50.828;4.416;2024-02-26T02:46:07;8.70;99.90
19880;DHT22;10102;50.828;4.416;2024-02-26T02:48:32;8.70;99.90
19880;DHT22;10102;50.828;4.416;2024-02-26T02:50:58;8.70;99.90
19880;DHT22;10102;50.828;4.416;2024-02-26T02:53:24;8.70;99.90
19880;DHT22;10102;50.828;4.416;2024-02-26T02:55:49;8.80;99.90
19880;DHT22;10102;50.828;4.416;2024-02-26T02:58:15;9.10;99.90
19880;DHT22;10102;50.828;4.416;2024-02-26T03:00:40;8.70;99.90
19880;DHT22;10102;50.828;4.416;2024-02-26T03:05:32;8.70;99.90
19880;DHT22;10102;50.828;4.416;2024-02-26T03:07:58;8.90;99.90
19880;DHT22;10102;50.828;4.416;2024-02-26T03:10:23;8.80;99.90
19880;DHT22;10102;50.828;4.416;2024-02-26T03:12:50;8.90;99.90
19880;DHT22;10102;50.828;4.416;2024-02-26T03:15:15;8.70;99.90
19880;DHT22;10102;50.828;4.416;2024-02-26T03:17:41;8.60;99.90
19880;DHT22;10102;50.828;4.416;2024-02-26T03:20:08;8.50;99.90
19880;DHT22;10102;50.828;4.416;2024-02-26T03:22:35;8.60;99.90
19880;DHT22;10102;50.828;4.416;2024-02-26T03:25:01;8.60;99.90
19880;DHT22;10102;50.828;4.416;2024-02-26T03:29:53;8.60;99.90
19880;DHT22;10102;50.828;4.416;2024-02-26T03:32:19;8.70;99.90
19880;DHT22;10102;50.828;4.416;2024-02-26T03:34:45;8.50;99.90
19880;DHT22;10102;50.828;4.416;2024-02-26T03:37:10;8.50;99.90
19880;DHT22;10102;50.828;4.416;2024-02-26T03:42:03;8.50;99.90
19880;DHT22;10102;50.828;4.416;2024-02-26T03:44:29;8.60;99.90
19880;DHT22;10102;50.828;4.416;2024-02-26T03:46:54;8.60;99.90
19880;DHT22;10102;50.828;4.416;2024-02-26T03:49:21;8.50;99.90
19880;DHT22;10102;50.828;4.416;2024-02-26T03:51:48;8.50;99.90
19880;DHT22;10102;50.828;4.416;2024-02-26T03:54:13;8.80;99.90
19880;DHT22;10102;50.828;4.416;2024-02-26T03:56:39;8.60;99.90
19880;DHT22;10102;50.828;4.416;2024-02-26T03:59:05;8.50;99.90
19880;DHT22;10102;50.828;4.416;2024-02-26T04:01:31;8.60;99.90
19880;DHT22;10102;50.828;4.416;2024-02-26T04:03:56;8.60;99.90
19880;DHT22;10102;50.828;4.416;2024-02-26T04:06:22;8.50;99.90
19880;DHT22;10102;50.828;4.416;2024-02-26T04:08:48;8.50;99.90
19880;DHT22;10102;50.828;4.416;2024-02-26T04:11:14;8.50;99.90
19880;DHT22;10102;50.828;4.416;2024-02-26T04:13:43;8.80;99.90
19880;DHT22;10102;50.828;4.416;2024-02-26T04:16:11;8.60;99.90
19880;DHT22;10102;50.828;4.416;2024-02-26T04:18:37;9.00;99.90
19880;DHT22;10102;50.828;4.416;2024-02-26T04:21:04;8.60;99.90
19880;DHT22;10102;50.828;4.416;2024-02-26T04:23:31;8.50;99.90
19880;DHT22;10102;50.828;4.416;2024-02-26T04:25:56;9.30;99.90
19880;DHT22;10102;50.828;4.416;2024-02-26T04:28:22;9.70;99.90
19880;DHT22;10102;50.828;4.416;2024-02-26T04:30:51;8.60;99.90
19880;DHT22;10102;50.828;4.416;2024-02-26T04:33:16;8.10;99.90
19880;DHT22;10102;50.828;4.416;2024-02-26T04:35:42;8.40;99.90
19880;DHT22;10102;50.828;4.416;2024-02-26T04:38:08;8.40;99.90
19880;DHT22;10102;50.828;4.416;2024-02-26T04:42:59;8.30;99.90
19880;DHT22;10102;50.828;4.416;2024-02-26T04:45:25;8.10;99.90
19880;DHT22;10102;50.828;4.416;2024-02-26T04:47:51;8.50;99.90
19880;DHT22;10102;50.828;4.416;2024-02-26T04:52:42;8.50;99.90
19880;DHT22;10102;50.828;4.416;2024-02-26T04:55:08;8.50;99.90
19880;DHT22;10102;50.828;4.416;2024-02-26T04:57:34;8.40;99.90
19880;DHT22;10102;50.828;4.416;2024-02-26T04:59:59;8.50;99.90
19880;DHT22;10102;50.828;4.416;2024-02-26T05:04:51;8.20;99.90
19880;DHT22;10102;50.828;4.416;2024-02-26T05:07:17;8.50;99.90
19880;DHT22;10102;50.828;4.416;2024-02-26T05:09:43;8.40;99.90
19880;DHT22;10102;50.828;4.416;2024-02-26T05:12:09;8.40;99.90
19880;DHT22;10102;50.828;4.416;2024-02-26T05:14:35;8.30;99.90
19880;DHT22;10102;50.828;4.416;2024-02-26T05:19:27;8.20;99.90
19880;DHT22;10102;50.828;4.416;2024-02-26T05:21:52;8.40;99.90
19880;DHT22;10102;50.828;4.416;2024-02-26T05:24:18;8.30;99.90
19880;DHT22;10102;50.828;4.416;2024-02-26T05:26:47;8.80;99.90
19880;DHT22;10102;50.828;4.416;2024-02-26T05:29:13;8.50;99.90
19880;DHT22;10102;50.828;4.416;2024-02-26T05:31:39;8.50;99.90
19880;DHT22;10102;50.828;4.416;2024-02-26T05:34:05;8.70;99.90
19880;DHT22;10102;50.828;4.416;2024-02-26T05:36:30;8.50;99.90
19880;DHT22;10102;50.828;4.416;2024-02-26T05:38:59;8.50;99.90
19880;DHT22;10102;50.828;4.416;2024-02-26T05:41:26;8.50;99.90
19880;DHT22;10102;50.828;4.416;2024-02-26T05:43:57;8.40;99.90
19880;DHT22;10102;50.828;4.416;2024-02-26T05:48:51;8.30;99.90
19880;DHT22;10102;50.828;4.416;2024-02-26T05:51:17;8.30;99.90
19880;DHT22;10102;50.828;4.416;2024-02-26T05:53:43;8.30;99.90
19880;DHT22;10102;50.828;4.416;2024-02-26T05:56:09;8.30;99.90
19880;DHT22;10102;50.828;4.416;2024-02-26T06:01:01;8.20;99.90
19880;DHT22;10102;50.828;4.416;2024-02-26T06:03:27;8.20;99.90
19880;DHT22;10102;50.828;4.416;2024-02-26T06:05:52;8.20;99.90
19880;DHT22;10102;50.828;4.416;2024-02-26T06:08:18;8.20;99.90
19880;DHT22;10102;50.828;4.416;2024-02-26T06:10:44;8.50;99.90
19880;DHT22;10102;50.828;4.416;2024-02-26T06:15:36;8.30;99.90
19880;DHT22;10102;50.828;4.416;2024-02-26T06:20:27;8.20;99.90
19880;DHT22;10102;50.828;4.416;2024-02-26T06:22:53;8.20;99.90
19880;DHT22;10102;50.828;4.416;2024-02-26T06:27:45;8.10;99.90
19880;DHT22;10102;50.828;4.416;2024-02-26T06:30:11;8.40;99.90
19880;DHT22;10102;50.828;4.416;2024-02-26T06:32:40;8.30;99.90
19880;DHT22;10102;50.828;4.416;2024-02-26T06:35:06;8.10;99.90
19880;DHT22;10102;50.828;4.416;2024-02-26T06:37:33;8.10;99.90
19880;DHT22;10102;50.828;4.416;2024-02-26T06:40:00;8.10;99.90
19880;DHT22;10102;50.828;4.416;2024-02-26T06:42:25;8.00;99.90
19880;DHT22;10102;50.828;4.416;2024-02-26T06:44:51;8.10;99.90
19880;DHT22;10102;50.828;4.416;2024-02-26T06:47:17;8.10;99.90
19880;DHT22;10102;50.828;4.416;2024-02-26T06:49:42;8.10;99.90
19880;DHT22;10102;50.828;4.416;2024-02-26T06:52:09;8.20;99.90
19880;DHT22;10102;50.828;4.416;2024-02-26T06:54:35;8.20;99.90
19880;DHT22;10102;50.828;4.416;2024-02-26T06:57:00;8.10;99.90
19880;DHT22;10102;50.828;4.416;2024-02-26T06:59:26;8.20;99.90
19880;DHT22;10102;50.828;4.416;2024-02-26T07:01:52;8.20;99.90
19880;DHT22;10102;50.828;4.416;2024-02-26T07:04:17;8.20;99.90
19880;DHT22;10102;50.828;4.416;2024-02-26T07:09:09;8.00;99.90
19880;DHT22;10102;50.828;4.416;2024-02-26T07:11:37;7.90;99.90
19880;DHT22;10102;50.828;4.416;2024-02-26T07:14:05;8.10;99.90
19880;DHT22;10102;50.828;4.416;2024-02-26T07:16:30;8.10;99.90
19880;DHT22;10102;50.828;4.416;2024-02-26T07:18:56;7.70;99.90
19880;DHT22;10102;50.828;4.416;2024-02-26T07:21:22;8.00;99.90
19880;DHT22;10102;50.828;4.416;2024-02-26T07:23:47;8.00;99.90
19880;DHT22;10102;50.828;4.416;2024-02-26T07:26:13;7.90;99.90
19880;DHT22;10102;50.828;4.416;2024-02-26T07:28:39;8.00;99.90
19880;DHT22;10102;50.828;4.416;2024-02-26T07:31:04;7.70;99.90
19880;DHT22;10102;50.828;4.416;2024-02-26T07:33:30;8.00;99.90
19880;DHT22;10102;50.828;4.416;2024-02-26T07:38:21;8.10;99.90
19880;DHT22;10102;50.828;4.416;2024-02-26T07:40:48;8.00;99.90
19880;DHT22;10102;50.828;4.416;2024-02-26T07:43:14;8.00;99.90
19880;DHT22;10102;50.828;4.416;2024-02-26T07:45:40;8.00;99.90
19880;DHT22;10102;50.828;4.416;2024-02-26T07:48:06;8.00;99.90
19880;DHT22;10102;50.828;4.416;2024-02-26T07:50:31;7.80;99.90
19880;DHT22;10102;50.828;4.416;2024-02-26T07:52:57;7.90;99.90
19880;DHT22;10102;50.828;4.416;2024-02-26T08:05:30;8.00;99.90
19880;DHT22;10102;50.828;4.416;2024-02-26T08:07:56;8.20;99.90
19880;DHT22;10102;50.828;4.416;2024-02-26T08:10:21;8.20;99.90
19880;DHT22;10102;50.828;4.416;2024-02-26T08:12:47;8.30;99.90
19880;DHT22;10102;50.828;4.416;2024-02-26T08:15:12;8.20;99.90
19880;DHT22;10102;50.828;4.416;2024-02-26T08:17:38;8.10;99.90
19880;DHT22;10102;50.828;4.416;2024-02-26T08:20:05;8.10;99.90
19880;DHT22;10102;50.828;4.416;2024-02-26T08:22:30;8.20;99.90
19880;DHT22;10102;50.828;4.416;2024-02-26T08:24:57;8.20;99.90
19880;DHT22;10102;50.828;4.416;2024-02-26T08:27:23;8.10;99.90
19880;DHT22;10102;50.828;4.416;2024-02-26T08:29:49;8.10;99.90
19880;DHT22;10102;50.828;4.416;2024-02-26T08:32:14;8.20;99.90
19880;DHT22;10102;50.828;4.416;2024-02-26T08:34:40;7.80;99.90
19880;DHT22;10102;50.828;4.416;2024-02-26T08:37:06;8.20;99.90
19880;DHT22;10102;50.828;4.416;2024-02-26T08:39:31;8.00;99.90
19880;DHT22;10102;50.828;4.416;2024-02-26T08:44:23;7.90;99.90
19880;DHT22;10102;50.828;4.416;2024-02-26T08:46:49;7.90;99.90
19880;DHT22;10102;50.828;4.416;2024-02-26T08:51:42;8.10;99.90
19880;DHT22;10102;50.828;4.416;2024-02-26T08:54:09;8.10;99.90
19880;DHT22;10102;50.828;4.416;2024-02-26T08:56:35;8.00;99.90
19880;DHT22;10102;50.828;4.416;2024-02-26T08:59:00;8.10;99.90
19880;DHT22;10102;50.828;4.416;2024-02-26T09:01:30;8.10;99.90
19880;DHT22;10102;50.828;4.416;2024-02-26T09:03:56;8.00;99.90
19880;DHT22;10102;50.828;4.416;2024-02-26T09:06:22;8.20;99.90
19880;DHT22;10102;50.828;4.416;2024-02-26T09:08:47;8.00;99.90
19880;DHT22;10102;50.828;4.416;2024-02-26T09:11:13;8.00;99.90
19880;DHT22;10102;50.828;4.416;2024-02-26T09:13:39;8.10;99.90
19880;DHT22;10102;50.828;4.416;2024-02-26T09:16:05;8.00;99.90
19880;DHT22;10102;50.828;4.416;2024-02-26T09:18:31;8.00;99.90
19880;DHT22;10102;50.828;4.416;2024-02-26T09:23:23;7.90;99.90
19880;DHT22;10102;50.828;4.416;2024-02-26T09:25:48;7.90;99.90
19880;DHT22;10102;50.828;4.416;2024-02-26T09:28:14;7.80;99.90
19880;DHT22;10102;50.828;4.416;2024-02-26T09:30:45;8.10;99.90
19880;DHT22;10102;50.828;4.416;2024-02-26T09:33:11;8.20;99.90
19880;DHT22;10102;50.828;4.416;2024-02-26T09:35:38;8.20;99.90
19880;DHT22;10102;50.828;4.416;2024-02-26T09:38:04;8.20;99.90
19880;DHT22;10102;50.828;4.416;2024-02-26T09:40:30;8.20;99.90
19880;DHT22;10102;50.828;4.416;2024-02-26T09:42:59;8.10;99.90
19880;DHT22;10102;50.828;4.416;2024-02-26T09:45:26;8.10;99.90
19880;DHT22;10102;50.828;4.416;2024-02-26T09:47:55;8.10;99.90
19880;DHT22;10102;50.828;4.416;2024-02-26T09:50:22;8.10;99.90
19880;DHT22;10102;50.828;4.416;2024-02-26T09:52:49;8.10;99.90
19880;DHT22;10102;50.828;4.416;2024-02-26T09:55:15;8.20;99.90
19880;DHT22;10102;50.828;4.416;2024-02-26T09:57:45;8.20;99.90
19880;DHT22;10102;50.828;4.416;2024-02-26T10:00:17;8.10;99.90
19880;DHT22;10102;50.828;4.416;2024-02-26T10:02:45;8.20;99.90
19880;DHT22;10102;50.828;4.416;2024-02-26T10:05:14;8.20;99.90
19880;DHT22;10102;50.828;4.416;2024-02-26T10:07:42;8.20;99.90
19880;DHT22;10102;50.828;4.416;2024-02-26T10:10:08;8.20;99.90
19880;DHT22;10102;50.828;4.416;2024-02-26T10:12:34;8.30;99.90
19880;DHT22;10102;50.828;4.416;2024-02-26T10:15:00;8.40;99.90
19880;DHT22;10102;50.828;4.416;2024-02-26T10:17:26;8.30;99.90
19880;DHT22;10102;50.828;4.416;2024-02-26T10:19:53;8.50;99.90
19880;DHT22;10102;50.828;4.416;2024-02-26T10:22:22;8.50;99.90
19880;DHT22;10102;50.828;4.416;2024-02-26T10:24:48;8.20;99.90
19880;DHT22;10102;50.828;4.416;2024-02-26T10:27:14;8.60;99.90
19880;DHT22;10102;50.828;4.416;2024-02-26T10:29:40;8.40;99.90
19880;DHT22;10102;50.828;4.416;2024-02-26T10:32:09;8.50;99.90
19880;DHT22;10102;50.828;4.416;2024-02-26T10:34:35;8.50;99.90
19880;DHT22;10102;50.828;4.416;2024-02-26T10:37:04;8.40;99.90
19880;DHT22;10102;50.828;4.416;2024-02-26T10:39:30;8.10;99.90
19880;DHT22;10102;50.828;4.416;2024-02-26T10:41:56;8.20;99.90
19880;DHT22;10102;50.828;4.416;2024-02-26T10:46:48;8.60;99.90
19880;DHT22;10102;50.828;4.416;2024-02-26T10:49:15;8.20;99.90
19880;DHT22;10102;50.828;4.416;2024-02-26T10:51:44;8.30;99.90
19880;DHT22;10102;50.828;4.416;2024-02-26T10:54:15;8.20;99.90
19880;DHT22;10102;50.828;4.416;2024-02-26T10:56:42;8.30;99.90
19880;DHT22;10102;50.828;4.416;2024-02-26T10:59:12;8.20;99.90
19880;DHT22;10102;50.828;4.416;2024-02-26T11:01:39;8.30;99.90
19880;DHT22;10102;50.828;4.416;2024-02-26T11:04:07;8.20;99.90
19880;DHT22;10102;50.828;4.416;2024-02-26T11:06:33;8.20;99.90
19880;DHT22;10102;50.828;4.416;2024-02-26T11:09:01;8.20;99.90
19880;DHT22;10102;50.828;4.416;2024-02-26T11:11:28;8.10;99.90
19880;DHT22;10102;50.828;4.416;2024-02-26T11:13:56;8.10;99.90
19880;DHT22;10102;50.828;4.416;2024-02-26T11:16:23;8.30;99.90
19880;DHT22;10102;50.828;4.416;2024-02-26T11:18:49;8.20;99.90
19880;DHT22;10102;50.828;4.416;2024-02-26T11:21:19;8.30;99.90
19880;DHT22;10102;50.828;4.416;2024-02-26T11:23:47;8.20;99.90
19880;DHT22;10102;50.828;4.416;2024-02-26T11:26:15;8.30;99.90
19880;DHT22;10102;50.828;4.416;2024-02-26T11:28:43;8.20;99.90
19880;DHT22;10102;50.828;4.416;2024-02-26T11:31:10;8.30;99.90
19880;DHT22;10102;50.828;4.416;2024-02-26T11:33:36;8.20;99.90
19880;DHT22;10102;50.828;4.416;2024-02-26T11:36:08;8.20;99.90
19880;DHT22;10102;50.828;4.416;2024-02-26T11:38:35;8.30;99.90
19880;DHT22;10102;50.828;4.416;2024-02-26T11:46:30;8.40;99.90
19880;DHT22;10102;50.828;4.416;2024-02-26T11:48:58;8.30;99.90
19880;DHT22;10102;50.828;4.416;2024-02-26T11:51:32;8.30;99.90
19880;DHT22;10102;50.828;4.416;2024-02-26T11:53:57;8.20;99.90
19880;DHT22;10102;50.828;4.416;2024-02-26T11:56:24;8.20;99.90
19880;DHT22;10102;50.828;4.416;2024-02-26T11:59:37;8.50;99.90
19880;DHT22;10102;50.828;4.416;2024-02-26T12:01:50;8.40;99.90
19880;DHT22;10102;50.828;4.416;2024-02-26T12:04:26;8.60;99.90
19880;DHT22;10102;50.828;4.416;2024-02-26T12:06:55;8.30;99.90
19880;DHT22;10102;50.828;4.416;2024-02-26T12:09:40;8.40;99.90
19880;DHT22;10102;50.828;4.416;2024-02-26T12:12:08;8.60;99.90
19880;DHT22;10102;50.828;4.416;2024-02-26T12:14:38;8.30;99.90
19880;DHT22;10102;50.828;4.416;2024-02-26T12:17:05;8.40;99.90
19880;DHT22;10102;50.828;4.416;2024-02-26T12:19:34;8.30;99.90
19880;DHT22;10102;50.828;4.416;2024-02-26T12:22:00;8.30;99.90
19880;DHT22;10102;50.828;4.416;2024-02-26T12:24:26;8.30;99.90
19880;DHT22;10102;50.828;4.416;2024-02-26T12:26:51;8.40;99.90
19880;DHT22;10102;50.828;4.416;2024-02-26T12:29:17;8.30;99.90
19880;DHT22;10102;50.828;4.416;2024-02-26T12:31:43;8.40;99.90
19880;DHT22;10102;50.828;4.416;2024-02-26T12:34:09;8.40;99.90
19880;DHT22;10102;50.828;4.416;2024-02-26T12:36:35;8.40;99.90
19880;DHT22;10102;50.828;4.416;2024-02-26T12:39:02;8.50;99.90
19880;DHT22;10102;50.828;4.416;2024-02-26T12:41:31;8.40;99.90
19880;DHT22;10102;50.828;4.416;2024-02-26T12:43:57;8.40;99.90
19880;DHT22;10102;50.828;4.416;2024-02-26T12:46:24;8.40;99.90
19880;DHT22;10102;50.828;4.416;2024-02-26T12:48:51;8.80;99.90
19880;DHT22;10102;50.828;4.416;2024-02-26T12:51:17;8.30;99.90
19880;DHT22;10102;50.828;4.416;2024-02-26T12:53:47;8.50;99.90
19880;DHT22;10102;50.828;4.416;2024-02-26T12:56:16;8.50;99.90
19880;DHT22;10102;50.828;4.416;2024-02-26T12:58:42;8.50;99.90
19880;DHT22;10102;50.828;4.416;2024-02-26T13:01:14;8.40;99.90
19880;DHT22;10102;50.828;4.416;2024-02-26T13:06:08;8.30;99.90
19880;DHT22;10102;50.828;4.416;2024-02-26T13:08:34;8.30;99.90
19880;DHT22;10102;50.828;4.416;2024-02-26T13:11:00;8.40;99.90
19880;DHT22;10102;50.828;4.416;2024-02-26T13:13:26;8.20;99.90
19880;DHT22;10102;50.828;4.416;2024-02-26T13:16:04;8.10;99.90
19880;DHT22;10102;50.828;4.416;2024-02-26T13:18:32;8.20;99.90
19880;DHT22;10102;50.828;4.416;2024-02-26T13:23:34;8.10;99.90
19880;DHT22;10102;50.828;4.416;2024-02-26T13:26:00;8.10;99.90
19880;DHT22;10102;50.828;4.416;2024-02-26T13:28:25;8.30;99.90
19880;DHT22;10102;50.828;4.416;2024-02-26T13:30:57;8.00;99.90
19880;DHT22;10102;50.828;4.416;2024-02-26T13:33:24;8.00;99.90
19880;DHT22;10102;50.828;4.416;2024-02-26T13:35:50;8.00;99.90
19880;DHT22;10102;50.828;4.416;2024-02-26T13:38:16;7.80;99.90
19880;DHT22;10102;50.828;4.416;2024-02-26T13:40:42;7.80;99.90
19880;DHT22;10102;50.828;4.416;2024-02-26T13:45:35;7.90;99.90
19880;DHT22;10102;50.828;4.416;2024-02-26T13:48:02;8.10;99.90
19880;DHT22;10102;50.828;4.416;2024-02-26T13:50:29;8.00;99.90
19880;DHT22;10102;50.828;4.416;2024-02-26T13:52:55;8.00;99.90
19880;DHT22;10102;50.828;4.416;2024-02-26T13:55:31;8.10;99.90
19880;DHT22;10102;50.828;4.416;2024-02-26T13:57:58;8.00;99.90
19880;DHT22;10102;50.828;4.416;2024-02-26T14:00:24;8.00;99.90
19880;DHT22;10102;50.828;4.416;2024-02-26T14:02:50;8.00;99.90
19880;DHT22;10102;50.828;4.416;2024-02-26T14:05:16;8.00;99.90
19880;DHT22;10102;50.828;4.416;2024-02-26T14:07:42;8.00;99.90
19880;DHT22;10102;50.828;4.416;2024-02-26T14:10:09;7.40;99.90
19880;DHT22;10102;50.828;4.416;2024-02-26T14:12:37;7.90;99.90
19880;DHT22;10102;50.828;4.416;2024-02-26T14:15:03;7.80;99.90
19880;DHT22;10102;50.828;4.416;2024-02-26T14:17:30;7.70;99.90
19880;DHT22;10102;50.828;4.416;2024-02-26T14:22:22;7.90;99.90
19880;DHT22;10102;50.828;4.416;2024-02-26T14:27:14;7.90;99.90
19880;DHT22;10102;50.828;4.416;2024-02-26T14:29:41;7.90;99.90
19880;DHT22;10102;50.828;4.416;2024-02-26T14:32:11;8.00;99.90
19880;DHT22;10102;50.828;4.416;2024-02-26T14:34:37;7.60;99.90
19880;DHT22;10102;50.828;4.416;2024-02-26T14:37:03;8.00;99.90
19880;DHT22;10102;50.828;4.416;2024-02-26T14:39:31;8.10;99.90
19880;DHT22;10102;50.828;4.416;2024-02-26T14:41:57;8.10;99.90
19880;DHT22;10102;50.828;4.416;2024-02-26T14:44:23;8.00;99.90
19880;DHT22;10102;50.828;4.416;2024-02-26T14:46:50;8.00;99.90
19880;DHT22;10102;50.828;4.416;2024-02-26T14:49:16;8.10;99.90
19880;DHT22;10102;50.828;4.416;2024-02-26T14:51:42;8.20;99.90
19880;DHT22;10102;50.828;4.416;2024-02-26T14:54:10;8.10;99.90
19880;DHT22;10102;50.828;4.416;2024-02-26T14:56:36;8.10;99.90
19880;DHT22;10102;50.828;4.416;2024-02-26T14:59:02;8.10;99.90
19880;DHT22;10102;50.828;4.416;2024-02-26T15:01:28;8.20;99.90
19880;DHT22;10102;50.828;4.416;2024-02-26T15:03:53;8.10;99.90
19880;DHT22;10102;50.828;4.416;2024-02-26T15:06:19;8.20;99.90
19880;DHT22;10102;50.828;4.416;2024-02-26T15:11:11;8.10;99.90
19880;DHT22;10102;50.828;4.416;2024-02-26T15:13:37;8.20;99.90
19880;DHT22;10102;50.828;4.416;2024-02-26T15:16:03;8.10;99.90
19880;DHT22;10102;50.828;4.416;2024-02-26T15:18:29;8.10;99.90
19880;DHT22;10102;50.828;4.416;2024-02-26T15:23:21;8.10;99.90
19880;DHT22;10102;50.828;4.416;2024-02-26T15:25:46;8.00;99.90
19880;DHT22;10102;50.828;4.416;2024-02-26T15:28:12;8.50;99.90
19880;DHT22;10102;50.828;4.416;2024-02-26T15:30:40;8.10;99.90
19880;DHT22;10102;50.828;4.416;2024-02-26T15:33:06;8.00;99.90
19880;DHT22;10102;50.828;4.416;2024-02-26T15:35:32;8.00;99.90
19880;DHT22;10102;50.828;4.416;2024-02-26T15:37:57;7.90;99.90
19880;DHT22;10102;50.828;4.416;2024-02-26T15:40:24;8.00;99.90
19880;DHT22;10102;50.828;4.416;2024-02-26T15:42:50;7.90;99.90
19880;DHT22;10102;50.828;4.416;2024-02-26T15:47:42;7.90;99.90
19880;DHT22;10102;50.828;4.416;2024-02-26T15:50:08;7.90;99.90
19880;DHT22;10102;50.828;4.416;2024-02-26T15:52:36;7.90;99.90
19880;DHT22;10102;50.828;4.416;2024-02-26T15:55:02;8.00;99.90
19880;DHT22;10102;50.828;4.416;2024-02-26T15:57:27;8.00;99.90
19880;DHT22;10102;50.828;4.416;2024-02-26T15:59:53;8.00;99.90
19880;DHT22;10102;50.828;4.416;2024-02-26T16:02:20;7.90;99.90
19880;DHT22;10102;50.828;4.416;2024-02-26T16:04:46;7.90;99.90
19880;DHT22;10102;50.828;4.416;2024-02-26T16:07:22;7.90;99.90
19880;DHT22;10102;50.828;4.416;2024-02-26T16:09:55;7.90;99.90
19880;DHT22;10102;50.828;4.416;2024-02-26T16:12:29;7.80;99.90
19880;DHT22;10102;50.828;4.416;2024-02-26T16:14:57;7.90;99.90
19880;DHT22;10102;50.828;4.416;2024-02-26T16:17:32;7.90;99.90
19880;DHT22;10102;50.828;4.416;2024-02-26T16:20:03;7.90;99.90
19880;DHT22;10102;50.828;4.416;2024-02-26T16:24:57;7.80;99.90
19880;DHT22;10102;50.828;4.416;2024-02-26T16:27:23;7.90;99.90
19880;DHT22;10102;50.828;4.416;2024-02-26T16:29:49;7.90;99.90
19880;DHT22;10102;50.828;4.416;2024-02-26T16:32:15;7.80;99.90
19880;DHT22;10102;50.828;4.416;2024-02-26T16:34:41;8.20;99.90
19880;DHT22;10102;50.828;4.416;2024-02-26T16:37:10;7.80;99.90
19880;DHT22;10102;50.828;4.416;2024-02-26T16:39:38;7.80;99.90
19880;DHT22;10102;50.828;4.416;2024-02-26T16:42:07;8.10;99.90
19880;DHT22;10102;50.828;4.416;2024-02-26T16:44:38;8.00;99.90
19880;DHT22;10102;50.828;4.416;2024-02-26T16:47:04;7.90;99.90
19880;DHT22;10102;50.828;4.416;2024-02-26T16:49:30;7.80;99.90
19880;DHT22;10102;50.828;4.416;2024-02-26T16:51:56;7.70;99.90
19880;DHT22;10102;50.828;4.416;2024-02-26T16:54:22;7.80;99.90
19880;DHT22;10102;50.828;4.416;2024-02-26T16:56:48;7.80;99.90
19880;DHT22;10102;50.828;4.416;2024-02-26T16:59:14;7.80;99.90
19880;DHT22;10102;50.828;4.416;2024-02-26T17:01:44;7.80;99.90
19880;DHT22;10102;50.828;4.416;2024-02-26T17:06:36;7.80;99.90